Time;durP1;ratioP1;P1;durP2;ratioP2;P2;SDS_P1;SDS_P2;PMS_P1;PMS_P2;Temp;Humidity;BMP_temperature;BMP_pressure;BME280_temperature;BME280_humidity;BME280_pressure;Samples;Min_cycle;Max_cycle;Signal;HPM_P1;HPM_P2
2023/09/19 00:01:44;;;;;;;;;;;;;;;18.10;77.32;97498.16;5024345;28;19929;-61
2023/09/19 00:04:12;;;;;;;;;;;;;;;18.12;77.15;97504.09;5025598;28;19932;-62
2023/09/19 00:06:40;;;;;;;;;;;;;;;18.14;77.03;97504.50;5030568;28;19929;-62
2023/09/19 00:09:10;;;;;;;;;;;;;;;18.15;77.00;97504.13;5028889;28;19928;-61
2023/09/19 00:11:38;;;;;;;;;;;;;;;18.16;76.81;97507.66;5029338;28;19929;-61
2023/09/19 00:14:08;;;;;;;;;;;;;;;18.15;76.91;97515.13;5028076;28;19944;-61
2023/09/19 00:16:36;;;;;;;;;;;;;;;18.15;76.92;97511.56;5027405;28;20446;-61
2023/09/19 00:19:08;;;;;;;;;;;;;;;18.12;76.76;97502.13;5028792;28;20373;-62
2023/09/19 00:21:37;;;;;;;;;;;;;;;18.12;76.60;97502.13;5023849;28;19980;-62
2023/09/19 00:24:06;;;;;;;;;;;;;;;18.11;76.48;97510.72;5027235;28;19925;-62
2023/09/19 00:26:34;;;;;;;;;;;;;;;18.10;76.76;97520.94;5027441;28;19926;-62
2023/09/19 00:29:08;;;;;;;;;;;;;;;18.09;76.63;97515.81;5029989;28;19925;-62
2023/09/19 00:31:37;;;;;;;;;;;;;;;18.08;76.56;97514.22;5024168;28;20489;-61
2023/09/19 00:34:06;;;;;;;;;;;;;;;18.06;76.52;97525.59;5027915;28;20375;-61
2023/09/19 00:36:34;;;;;;;;;;;;;;;18.06;76.58;97520.09;5028448;28;19929;-61
2023/09/19 00:39:02;;;;;;;;;;;;;;;18.03;76.34;97523.59;5002372;28;19925;-61
2023/09/19 00:41:30;;;;;;;;;;;;;;;18.04;76.35;97533.41;5009060;28;19933;-61
2023/09/19 00:43:59;;;;;;;;;;;;;;;18.03;75.97;97538.13;5022629;28;19928;-61
2023/09/19 00:46:27;;;;;;;;;;;;;;;18.03;76.01;97532.63;5027899;28;19987;-61
2023/09/19 00:48:56;;;;;;;;;;;;;;;18.04;76.13;97527.91;5030158;28;19925;-62
2023/09/19 00:51:27;;;;;;;;;;;;;;;18.04;76.19;97544.41;5027441;28;19933;-61
2023/09/19 00:53:54;;;;;;;;;;;;;;;18.04;75.98;97545.19;5006012;28;20000;-62
2023/09/19 00:56:23;;;;;;;;;;;;;;;18.05;76.00;97546.00;5026295;28;19978;-61
2023/09/19 00:58:50;;;;;;;;;;;;;;;18.03;75.94;97545.56;5025853;28;19937;-62
2023/09/19 01:01:18;;;;;;;;;;;;;;;18.04;76.00;97555.41;5027776;28;19961;-62
2023/09/19 01:03:46;;;;;;;;;;;;;;;18.03;76.13;97557.38;5024657;28;20264;-62
2023/09/19 01:06:14;;;;;;;;;;;;;;;18.01;76.03;97561.66;5027387;28;20390;-61
2023/09/19 01:08:43;;;;;;;;;;;;;;;18.00;75.73;97554.53;5009657;28;20333;-61
2023/09/19 01:11:12;;;;;;;;;;;;;;;17.98;75.72;97556.88;5029465;28;19925;-62
2023/09/19 01:13:44;;;;;;;;;;;;;;;17.95;75.80;97558.44;5022698;28;19929;-62
2023/09/19 01:16:12;;;;;;;;;;;;;;;17.94;75.87;97556.03;5029426;28;19928;-61
2023/09/19 01:18:43;;;;;;;;;;;;;;;17.91;75.83;97559.53;5027617;28;19925;-61
2023/09/19 01:21:12;;;;;;;;;;;;;;;17.91;75.94;97559.53;5017938;28;19990;-61
2023/09/19 01:23:53;;;;;;;;;;;;;;;17.87;75.77;97556.72;5028511;28;20292;-62
2023/09/19 01:26:26;;;;;;;;;;;;;;;17.89;75.65;97551.63;5024408;28;20004;-62
2023/09/19 01:29:01;;;;;;;;;;;;;;;17.88;75.71;97558.28;5023327;28;20434;-61
2023/09/19 01:31:33;;;;;;;;;;;;;;;17.88;75.59;97563.78;5021206;28;19936;-62
2023/09/19 01:34:04;;;;;;;;;;;;;;;17.87;75.55;97572.41;5027799;28;19940;-61
2023/09/19 01:36:35;;;;;;;;;;;;;;;17.83;75.76;97571.53;5006906;28;19925;-61
2023/09/19 01:39:10;;;;;;;;;;;;;;;17.77;76.02;97569.09;5026369;28;19957;-62
2023/09/19 01:41:57;;;;;;;;;;;;;;;17.79;76.30;97569.56;5008391;28;19952;-61
2023/09/19 01:44:30;;;;;;;;;;;;;;;17.80;76.07;97565.63;5024105;28;19929;-61
2023/09/19 01:47:01;;;;;;;;;;;;;;;17.80;76.04;97557.38;5028830;28;20513;-61
2023/09/19 01:49:33;;;;;;;;;;;;;;;17.84;75.64;97559.38;5023191;28;19932;-62
2023/09/19 01:52:02;;;;;;;;;;;;;;;17.86;75.55;97566.13;5028018;28;19965;-62
2023/09/19 01:54:31;;;;;;;;;;;;;;;17.86;75.40;97566.13;5007558;28;19925;-61
2023/09/19 01:57:01;;;;;;;;;;;;;;;17.86;74.98;97565.31;5028331;28;20379;-62
2023/09/19 01:59:31;;;;;;;;;;;;;;;17.84;74.31;97570.38;5007687;28;19925;-61
2023/09/19 02:05:23;;;;;;;;;;;;;;;17.79;74.11;97571.50;5021459;28;19967;-62
2023/09/19 02:07:51;;;;;;;;;;;;;;;17.78;74.09;97570.69;5023726;28;19967;-61
2023/09/19 02:10:19;;;;;;;;;;;;;;;17.77;73.60;97569.09;5027980;28;19925;-62
2023/09/19 02:12:46;;;;;;;;;;;;;;;17.80;73.62;97573.09;5011001;28;19940;-61
2023/09/19 02:15:16;;;;;;;;;;;;;;;17.84;73.36;97573.13;5025997;28;20140;-61
2023/09/19 02:17:45;;;;;;;;;;;;;;;17.79;72.77;97575.03;5027344;28;19929;-62
2023/09/19 02:20:14;;;;;;;;;;;;;;;17.75;72.10;97565.16;5011004;28;19970;-61
2023/09/19 02:22:42;;;;;;;;;;;;;;;17.75;72.52;97574.19;5027985;28;19925;-62
2023/09/19 02:25:09;;;;;;;;;;;;;;;17.77;72.25;97579.31;5030380;28;20375;-61
2023/09/19 02:27:37;;;;;;;;;;;;;;;17.72;72.00;97574.91;5030508;28;19925;-62
2023/09/19 02:30:06;;;;;;;;;;;;;;;17.72;72.15;97583.16;5028267;28;20544;-62
2023/09/19 02:32:38;;;;;;;;;;;;;;;17.76;72.25;97584.00;5020740;28;19935;-61
2023/09/19 02:35:10;;;;;;;;;;;;;;;17.78;72.34;97578.94;5027557;28;19935;-61
2023/09/19 02:37:39;;;;;;;;;;;;;;;17.70;71.54;97588.19;5027388;28;19933;-62
2023/09/19 02:40:18;;;;;;;;;;;;;;;17.67;71.49;97590.88;5025477;28;19940;-62
2023/09/19 02:42:49;;;;;;;;;;;;;;;17.65;71.70;97594.00;5027703;28;20323;-61
2023/09/19 02:45:20;;;;;;;;;;;;;;;17.65;71.55;97602.22;5027043;28;19979;-62
2023/09/19 02:47:48;;;;;;;;;;;;;;;17.58;71.40;97599.38;5032916;28;19933;-61
2023/09/19 02:50:18;;;;;;;;;;;;;;;17.62;71.94;97602.16;5027818;28;20302;-62
2023/09/19 02:52:47;;;;;;;;;;;;;;;17.61;71.84;97603.31;5008379;28;20024;-61
2023/09/19 02:55:17;;;;;;;;;;;;;;;17.62;72.01;97605.69;5030773;28;20615;-61
2023/09/19 02:57:48;;;;;;;;;;;;;;;17.61;72.31;97609.59;5030620;28;19979;-61
2023/09/19 03:00:20;;;;;;;;;;;;;;;17.66;72.54;97608.50;5024163;28;19929;-62
2023/09/19 03:02:48;;;;;;;;;;;;;;;17.67;72.21;97610.88;5019827;28;19925;-61
2023/09/19 03:05:18;;;;;;;;;;;;;;;17.70;72.46;97615.66;5010059;28;20471;-62
2023/09/19 03:07:46;;;;;;;;;;;;;;;17.65;71.98;97615.97;5027833;28;19925;-62
2023/09/19 03:10:15;;;;;;;;;;;;;;;17.63;71.88;97622.97;5027454;28;19979;-62
2023/09/19 03:12:43;;;;;;;;;;;;;;;17.61;71.93;97628.03;5028226;28;19925;-62
2023/09/19 03:15:11;;;;;;;;;;;;;;;17.61;72.33;97622.56;5029835;28;19925;-62
2023/09/19 03:17:40;;;;;;;;;;;;;;;17.60;72.09;97630.00;5014076;28;19987;-62
2023/09/19 03:20:12;;;;;;;;;;;;;;;17.59;72.09;97633.91;5019462;28;19964;-61
2023/09/19 03:22:43;;;;;;;;;;;;;;;17.63;72.19;97623.78;5013015;28;19986;-61
2023/09/19 03:25:11;;;;;;;;;;;;;;;17.66;72.27;97622.25;5005989;28;20383;-62
2023/09/19 03:27:41;;;;;;;;;;;;;;;17.62;72.07;97624.94;5012749;28;19925;-62
2023/09/19 03:30:12;;;;;;;;;;;;;;;17.62;72.22;97624.13;5009249;28;20644;-61
2023/09/19 03:32:46;;;;;;;;;;;;;;;17.58;71.87;97621.34;5009200;28;19929;-61
2023/09/19 03:35:15;;;;;;;;;;;;;;;17.58;72.27;97621.34;5014155;28;19972;-61
2023/09/19 03:37:44;;;;;;;;;;;;;;;17.54;72.31;97628.72;5023141;28;20018;-61
2023/09/19 03:40:15;;;;;;;;;;;;;;;17.55;72.53;97627.56;5021386;28;20449;-61
2023/09/19 03:42:43;;;;;;;;;;;;;;;17.47;72.39;97634.03;5008882;28;19983;-61
2023/09/19 03:45:14;;;;;;;;;;;;;;;17.38;72.47;97626.06;5023149;28;19936;-62
2023/09/19 03:47:48;;;;;;;;;;;;;;;17.37;72.80;97627.22;5009152;28;19925;-62
2023/09/19 03:50:19;;;;;;;;;;;;;;;17.37;72.58;97635.47;5024811;28;19952;-62
2023/09/19 03:52:48;;;;;;;;;;;;;;;17.35;72.99;97628.72;5007187;28;20407;-61
2023/09/19 03:55:16;;;;;;;;;;;;;;;17.37;72.93;97634.66;5027564;28;19925;-62
2023/09/19 03:57:48;;;;;;;;;;;;;;;17.36;73.05;97625.59;5005916;28;19925;-61
2023/09/19 04:00:20;;;;;;;;;;;;;;;17.38;73.12;97633.50;5024156;28;19978;-62
2023/09/19 04:02:50;;;;;;;;;;;;;;;17.38;73.02;97626.06;5009312;28;19925;-61
2023/09/19 04:05:18;;;;;;;;;;;;;;;17.40;73.05;97625.69;5027104;28;19932;-62
2023/09/19 04:07:46;;;;;;;;;;;;;;;17.39;73.02;97641.38;5024211;28;20012;-61
2023/09/19 04:10:16;;;;;;;;;;;;;;;17.37;73.01;97642.91;5006644;28;19939;-61
2023/09/19 04:12:51;;;;;;;;;;;;;;;17.35;73.15;97645.19;5023774;28;20290;-62
2023/09/19 04:15:18;;;;;;;;;;;;;;;17.31;73.29;97647.91;5021326;28;20630;-61
2023/09/19 04:17:46;;;;;;;;;;;;;;;17.28;73.55;97649.41;5028512;28;19971;-61
2023/09/19 04:20:14;;;;;;;;;;;;;;;17.24;73.55;97648.53;5006592;28;19932;-61
2023/09/19 04:22:42;;;;;;;;;;;;;;;17.21;73.59;97656.69;5001001;28;19956;-61
2023/09/19 04:25:10;;;;;;;;;;;;;;;17.22;73.73;97664.56;5025236;28;20011;-61
2023/09/19 04:27:40;;;;;;;;;;;;;;;17.18;73.90;97663.69;5025687;28;19925;-61
2023/09/19 04:30:10;;;;;;;;;;;;;;;17.18;73.91;97662.91;5000461;28;20008;-62
2023/09/19 04:32:39;;;;;;;;;;;;;;;17.18;73.98;97671.13;5018283;28;19925;-61
2023/09/19 04:35:08;;;;;;;;;;;;;;;17.12;74.00;97675.31;5024462;28;19955;-62
2023/09/19 04:37:37;;;;;;;;;;;;;;;17.09;74.11;97671.34;5023391;28;19928;-62
2023/09/19 04:40:06;;;;;;;;;;;;;;;17.09;74.50;97673.28;5023487;28;19925;-62
2023/09/19 04:42:35;;;;;;;;;;;;;;;17.11;74.52;97671.78;5027055;28;20282;-61
2023/09/19 04:45:04;;;;;;;;;;;;;;;17.11;74.48;97684.72;5021270;28;19929;-61
2023/09/19 04:47:32;;;;;;;;;;;;;;;17.15;74.49;97680.91;5019882;28;19930;-61
2023/09/19 04:50:00;;;;;;;;;;;;;;;17.17;74.34;97673.09;5024797;28;19926;-61
2023/09/19 04:52:28;;;;;;;;;;;;;;;17.19;74.29;97689.97;5026617;28;19979;-61
2023/09/19 04:54:56;;;;;;;;;;;;;;;17.20;74.14;97685.28;5022419;28;20295;-62
2023/09/19 04:57:23;;;;;;;;;;;;;;;17.22;74.25;97689.28;5022267;28;19929;-61
2023/09/19 04:59:51;;;;;;;;;;;;;;;17.28;74.43;97689.78;5026143;28;19925;-61
2023/09/19 05:02:20;;;;;;;;;;;;;;;17.27;74.27;97689.00;5027016;28;19925;-62
2023/09/19 05:04:48;;;;;;;;;;;;;;;17.35;74.41;97684.44;5025066;28;19925;-61
2023/09/19 05:07:17;;;;;;;;;;;;;;;17.34;74.13;97688.34;5022626;28;19937;-61
2023/09/19 05:09:45;;;;;;;;;;;;;;;17.38;73.83;97693.91;5024613;28;20371;-62
2023/09/19 05:12:12;;;;;;;;;;;;;;;17.37;73.65;97697.81;5026655;28;19925;-61
2023/09/19 05:14:41;;;;;;;;;;;;;;;17.36;73.91;97697.00;5021061;28;19933;-61
2023/09/19 05:17:09;;;;;;;;;;;;;;;17.37;73.64;97701.34;5023307;28;19925;-61
2023/09/19 05:19:41;;;;;;;;;;;;;;;17.39;73.77;97707.28;5023455;28;19925;-61
2023/09/19 05:22:09;;;;;;;;;;;;;;;17.42;73.81;97711.25;5025382;28;19961;-61
2023/09/19 05:24:37;;;;;;;;;;;;;;;17.45;73.99;97705.03;5027383;28;20425;-62
2023/09/19 05:27:07;;;;;;;;;;;;;;;17.46;73.59;97701.91;5023794;28;19980;-61
2023/09/19 05:29:35;;;;;;;;;;;;;;;17.52;73.62;97697.75;5021407;28;19932;-61
2023/09/19 05:32:03;;;;;;;;;;;;;;;17.57;73.63;97707.63;5027340;28;19943;-67
2023/09/19 05:34:31;;;;;;;;;;;;;;;17.60;73.62;97704.16;5027919;28;19967;-61
2023/09/19 05:37:00;;;;;;;;;;;;;;;17.65;73.47;97703.09;5026109;28;19960;-62
2023/09/19 05:39:28;;;;;;;;;;;;;;;17.67;73.44;97701.56;5021594;28;19932;-61
2023/09/19 05:41:57;;;;;;;;;;;;;;;17.67;73.09;97712.53;5026005;28;19925;-61
2023/09/19 05:44:25;;;;;;;;;;;;;;;17.61;73.02;97721.44;5025859;28;19933;-66
2023/09/19 05:46:52;;;;;;;;;;;;;;;17.54;73.33;97722.09;5029170;28;19929;-61
2023/09/19 05:49:21;;;;;;;;;;;;;;;17.63;73.15;97721.84;5027301;28;19978;-61
2023/09/19 05:51:53;;;;;;;;;;;;;;;17.61;73.36;97730.47;5024827;28;19932;-61
2023/09/19 05:54:23;;;;;;;;;;;;;;;17.64;73.06;97735.25;5024613;28;19948;-62
2023/09/19 05:56:52;;;;;;;;;;;;;;;17.64;73.57;97731.72;5019223;28;19929;-62
2023/09/19 05:59:20;;;;;;;;;;;;;;;17.58;73.33;97735.88;5015479;28;19933;-61
2023/09/19 06:01:48;;;;;;;;;;;;;;;17.60;73.30;97748.13;5022537;28;19932;-61
2023/09/19 06:04:16;;;;;;;;;;;;;;;17.58;73.05;97753.19;5021710;28;20012;-63
2023/09/19 06:06:44;;;;;;;;;;;;;;;17.54;73.38;97752.31;5024696;28;19992;-62
2023/09/19 06:09:12;;;;;;;;;;;;;;;17.54;73.43;97753.09;5023841;28;20302;-62
2023/09/19 06:11:42;;;;;;;;;;;;;;;17.52;73.48;97760.09;5025771;28;19936;-62
2023/09/19 06:14:10;;;;;;;;;;;;;;;17.49;73.38;97756.13;5023568;28;20019;-61
2023/09/19 06:16:39;;;;;;;;;;;;;;;17.49;73.35;97766.31;5020217;28;19933;-61
2023/09/19 06:19:08;;;;;;;;;;;;;;;17.47;73.41;97763.13;5026104;28;20013;-62
2023/09/19 06:21:36;;;;;;;;;;;;;;;17.45;73.36;97768.19;5028290;28;19933;-61
2023/09/19 06:24:04;;;;;;;;;;;;;;;17.45;73.34;97771.75;5029019;28;20366;-62
2023/09/19 06:26:32;;;;;;;;;;;;;;;17.49;73.13;97771.81;5027117;28;19925;-61
2023/09/19 06:29:07;;;;;;;;;;;;;;;17.50;73.12;97778.91;5024606;28;19955;-62
2023/09/19 06:31:35;;;;;;;;;;;;;;;17.43;73.46;97767.78;5028171;28;20409;-62
2023/09/19 06:34:03;;;;;;;;;;;;;;;17.46;73.13;97778.03;5033864;28;19948;-62
2023/09/19 06:36:30;;;;;;;;;;;;;;;17.46;73.16;97787.06;5022466;28;19926;-62
2023/09/19 06:38:59;;;;;;;;;;;;;;;17.43;72.86;97784.25;5028292;28;20402;-62
2023/09/19 06:41:27;;;;;;;;;;;;;;;17.43;72.86;97784.25;5030249;28;19925;-62
2023/09/19 06:43:54;;;;;;;;;;;;;;;17.48;73.02;97782.00;5026531;28;19964;-62
2023/09/19 06:46:24;;;;;;;;;;;;;;;17.47;72.77;97785.09;5031564;28;19948;-62
2023/09/19 06:48:53;;;;;;;;;;;;;;;17.50;72.54;97774.19;5030730;28;19943;-61
2023/09/19 06:51:20;;;;;;;;;;;;;;;17.54;72.71;97785.28;5034307;28;19925;-62
2023/09/19 06:53:48;;;;;;;;;;;;;;;17.60;72.39;97781.09;5033850;28;19939;-62
2023/09/19 06:56:15;;;;;;;;;;;;;;;17.62;71.62;97786.22;5031180;28;19948;-64
2023/09/19 06:58:43;;;;;;;;;;;;;;;17.62;71.28;97792.50;5030962;28;19939;-62
2023/09/19 07:01:11;;;;;;;;;;;;;;;17.67;70.78;97783.19;5028953;28;19936;-62
2023/09/19 07:03:40;;;;;;;;;;;;;;;17.69;70.14;97794.63;5031483;28;20271;-62
2023/09/19 07:06:08;;;;;;;;;;;;;;;17.71;68.32;97800.53;5028425;28;19929;-61
2023/09/19 07:08:38;;;;;;;;;;;;;;;17.73;68.00;97804.53;5027288;28;19943;-62
2023/09/19 07:11:06;;;;;;;;;;;;;;;17.76;67.25;97806.56;5006130;28;19925;-62
2023/09/19 07:13:34;;;;;;;;;;;;;;;17.70;65.62;97810.72;5028843;28;19929;-62
2023/09/19 07:16:01;;;;;;;;;;;;;;;17.70;64.41;97812.69;5030463;28;20442;-62
2023/09/19 07:18:29;;;;;;;;;;;;;;;17.65;63.54;97819.25;5027209;28;19940;-62
2023/09/19 07:21:04;;;;;;;;;;;;;;;17.64;63.25;97816.88;5025053;28;19933;-62
2023/09/19 07:23:34;;;;;;;;;;;;;;;17.70;64.12;97821.72;5027406;28;19975;-62
2023/09/19 07:26:05;;;;;;;;;;;;;;;17.81;66.28;97821.97;5028540;28;19929;-62
2023/09/19 07:28:35;;;;;;;;;;;;;;;17.89;65.30;97811.91;5029759;28;19925;-62
2023/09/19 07:31:04;;;;;;;;;;;;;;;17.96;64.62;97817.56;5027423;28;20056;-61
2023/09/19 07:33:32;;;;;;;;;;;;;;;17.99;63.42;97823.13;5023563;28;20384;-61
2023/09/19 07:36:01;;;;;;;;;;;;;;;18.07;62.95;97826.81;5028433;28;19931;-62
2023/09/19 07:38:29;;;;;;;;;;;;;;;18.14;62.39;97824.22;5027101;28;19929;-61
2023/09/19 07:41:00;;;;;;;;;;;;;;;18.22;63.79;97828.69;5030323;28;20627;-61
2023/09/19 07:43:28;;;;;;;;;;;;;;;18.24;62.53;97831.88;5023564;28;19933;-61
2023/09/19 07:45:56;;;;;;;;;;;;;;;18.23;61.80;97835.78;5026423;28;19965;-61
2023/09/19 07:48:24;;;;;;;;;;;;;;;18.21;59.15;97837.28;5026353;28;19991;-62
2023/09/19 07:50:51;;;;;;;;;;;;;;;18.22;59.14;97834.19;5022810;28;19925;-61
2023/09/19 07:53:22;;;;;;;;;;;;;;;18.25;60.07;97825.22;5028429;28;19929;-62
2023/09/19 07:55:50;;;;;;;;;;;;;;;18.29;61.87;97834.31;5027044;28;19925;-62
2023/09/19 07:58:18;;;;;;;;;;;;;;;18.24;60.03;97834.63;5026808;28;19932;-62
2023/09/19 08:00:45;;;;;;;;;;;;;;;18.25;59.55;97830.72;5026821;28;19929;-61
2023/09/19 08:03:14;;;;;;;;;;;;;;;18.26;59.93;97837.78;5027219;28;19925;-61
2023/09/19 08:05:44;;;;;;;;;;;;;;;18.33;59.14;97837.94;5030377;28;19925;-61
2023/09/19 08:08:14;;;;;;;;;;;;;;;18.38;57.56;97839.63;5029553;28;19929;-61
2023/09/19 08:10:45;;;;;;;;;;;;;;;18.36;56.98;97852.13;5030153;28;19982;-61
2023/09/19 08:13:14;;;;;;;;;;;;;;;18.38;56.86;97849.81;5032218;28;19932;-62
2023/09/19 08:15:43;;;;;;;;;;;;;;;18.41;57.39;97851.81;5030443;28;19929;-61
2023/09/19 08:18:11;;;;;;;;;;;;;;;18.37;57.38;97860.00;5031167;28;20418;-62
2023/09/19 08:20:42;;;;;;;;;;;;;;;18.36;57.99;97860.38;5029382;28;19990;-62
2023/09/19 08:23:09;;;;;;;;;;;;;;;18.36;59.72;97863.13;5029559;28;20401;-61
2023/09/19 08:25:38;;;;;;;;;;;;;;;18.38;59.72;97866.31;5023356;28;19932;-62
2023/09/19 08:28:11;;;;;;;;;;;;;;;18.40;59.74;97870.28;5030000;28;20395;-62
2023/09/19 08:30:40;;;;;;;;;;;;;;;18.39;60.35;97873.41;5023948;28;19925;-61
2023/09/19 08:33:08;;;;;;;;;;;;;;;18.45;61.59;97881.00;5030381;28;19929;-62
2023/09/19 08:35:37;;;;;;;;;;;;;;;18.43;60.32;97877.00;5029502;28;20334;-61
2023/09/19 08:38:06;;;;;;;;;;;;;;;18.46;60.27;97870.78;5027276;28;19944;-62
2023/09/19 08:40:39;;;;;;;;;;;;;;;18.53;60.86;97879.16;5022664;28;19933;-61
2023/09/19 08:43:08;;;;;;;;;;;;;;;18.56;60.59;97872.94;5028440;28;19929;-61
2023/09/19 08:45:37;;;;;;;;;;;;;;;18.66;60.25;97871.56;5023873;28;19963;-62
2023/09/19 08:48:11;;;;;;;;;;;;;;;18.70;59.19;97867.75;5022552;28;19979;-62
2023/09/19 08:50:41;;;;;;;;;;;;;;;18.75;60.31;97872.94;5028570;28;20366;-61
2023/09/19 08:53:10;;;;;;;;;;;;;;;18.85;59.04;97879.78;5021746;28;19929;-61
2023/09/19 08:55:38;;;;;;;;;;;;;;;18.81;58.34;97871.47;5025542;28;19979;-61
2023/09/19 08:58:06;;;;;;;;;;;;;;;18.87;58.24;97876.69;5030371;28;20524;-61
2023/09/19 09:00:36;;;;;;;;;;;;;;;18.90;59.93;97876.72;5014759;28;19980;-61
2023/09/19 09:03:04;;;;;;;;;;;;;;;18.93;57.77;97891.72;5029228;28;19929;-61
2023/09/19 09:05:32;;;;;;;;;;;;;;;18.96;58.63;97890.97;5025737;28;20298;-62
2023/09/19 09:08:00;;;;;;;;;;;;;;;18.97;58.09;97887.88;5031239;28;19931;-61
2023/09/19 09:10:28;;;;;;;;;;;;;;;19.01;57.18;97885.16;5026402;28;19972;-62
2023/09/19 09:12:56;;;;;;;;;;;;;;;19.06;57.34;97888.41;5026018;28;19968;-62
2023/09/19 09:15:24;;;;;;;;;;;;;;;19.08;57.14;97894.34;5028987;28;19929;-61
2023/09/19 09:17:53;;;;;;;;;;;;;;;19.05;56.77;97894.28;5027849;28;20436;-62
2023/09/19 09:20:21;;;;;;;;;;;;;;;19.05;58.26;97886.03;5025638;28;19982;-62
2023/09/19 09:22:53;;;;;;;;;;;;;;;19.05;56.83;97888.78;5032017;28;19925;-62
2023/09/19 09:25:23;;;;;;;;;;;;;;;19.01;57.29;97888.72;5017337;28;19979;-62
2023/09/19 09:28:01;;;;;;;;;;;;;;;19.00;57.76;97898.13;5017201;28;19972;-62
2023/09/19 09:30:36;;;;;;;;;;;;;;;18.98;57.16;97905.19;5027778;28;19948;-62
2023/09/19 09:33:12;;;;;;;;;;;;;;;18.97;56.73;97914.63;5026818;28;19931;-62
2023/09/19 09:35:48;;;;;;;;;;;;;;;18.92;56.18;97923.97;5028191;28;19929;-62
2023/09/19 09:38:16;;;;;;;;;;;;;;;18.86;54.74;97936.44;5014974;28;20484;-62
2023/09/19 09:40:49;;;;;;;;;;;;;;;18.86;55.84;97927.41;5029962;28;20421;-62
2023/09/19 09:43:29;;;;;;;;;;;;;;;18.86;54.47;97930.16;5023066;28;19940;-62
2023/09/19 09:46:54;;;;;;;;;;;;;;;18.86;54.63;97932.91;5021072;28;19925;-62
2023/09/19 09:49:19;;;;;;;;;;;;;;;18.89;56.34;97937.66;5029259;28;20298;-61
2023/09/19 09:51:57;;;;;;;;;;;;;;;18.86;55.17;97932.91;5028166;28;19925;-61
2023/09/19 09:54:27;;;;;;;;;;;;;;;18.83;54.36;97924.19;5028884;28;20386;-62
2023/09/19 09:56:58;;;;;;;;;;;;;;;18.81;55.62;97929.28;5034229;28;19924;-62
2023/09/19 09:59:46;;;;;;;;;;;;;;;18.77;55.18;97931.16;5031574;28;19933;-62
2023/09/19 10:02:20;;;;;;;;;;;;;;;18.79;56.26;97931.59;5027129;28;19959;-62
2023/09/19 10:04:59;;;;;;;;;;;;;;;18.78;55.24;97924.50;5027438;28;19925;-62
2023/09/19 10:07:31;;;;;;;;;;;;;;;18.83;56.58;97935.19;5028134;28;19956;-62
2023/09/19 10:10:09;;;;;;;;;;;;;;;18.80;54.98;97924.13;5032446;28;19987;-62
2023/09/19 10:12:38;;;;;;;;;;;;;;;18.75;55.21;97908.72;5031007;28;20418;-62
2023/09/19 10:15:07;;;;;;;;;;;;;;;18.75;55.31;97921.66;5031720;28;19925;-62
2023/09/19 10:17:34;;;;;;;;;;;;;;;18.78;55.52;97913.47;5031478;28;19933;-62
2023/09/19 10:20:19;;;;;;;;;;;;;;;18.87;55.86;97915.22;5031741;28;19925;-62
2023/09/19 10:22:56;;;;;;;;;;;;;;;18.93;56.58;97913.75;5030471;28;19929;-62
2023/09/19 10:25:26;;;;;;;;;;;;;;;19.00;55.67;97919.38;5032853;28;19936;-62
2023/09/19 10:27:55;;;;;;;;;;;;;;;19.03;55.52;97913.16;5027980;28;19932;-62
2023/09/19 10:30:23;;;;;;;;;;;;;;;19.09;55.67;97897.91;5032465;28;19925;-62
2023/09/19 10:32:52;;;;;;;;;;;;;;;19.11;54.95;97906.59;5034861;28;19925;-62
2023/09/19 10:35:21;;;;;;;;;;;;;;;19.13;55.54;97907.03;5030343;28;19940;-62
2023/09/19 10:37:51;;;;;;;;;;;;;;;19.17;55.65;97902.34;5031452;28;19933;-63
2023/09/19 10:40:20;;;;;;;;;;;;;;;19.19;55.23;97907.50;5033530;28;19967;-62
2023/09/19 10:42:47;;;;;;;;;;;;;;;19.21;55.35;97910.69;5028563;28;19933;-62
2023/09/19 10:45:15;;;;;;;;;;;;;;;19.20;54.91;97915.41;5026652;28;19925;-62
2023/09/19 10:47:43;;;;;;;;;;;;;;;19.17;55.02;97918.88;5030679;28;19925;-62
2023/09/19 10:50:15;;;;;;;;;;;;;;;19.15;54.82;97910.19;5032307;28;19933;-62
2023/09/19 10:52:46;;;;;;;;;;;;;;;19.15;54.43;97914.91;5027314;28;20302;-62
2023/09/19 10:55:18;;;;;;;;;;;;;;;19.16;54.47;97911.00;5022770;28;19929;-62
2023/09/19 10:57:48;;;;;;;;;;;;;;;19.16;54.66;97911.78;5030343;28;19929;-62
2023/09/19 11:00:27;;;;;;;;;;;;;;;19.17;54.87;97916.13;5030746;28;19929;-61
2023/09/19 11:03:14;;;;;;;;;;;;;;;19.19;54.58;97905.56;5029511;28;20421;-61
2023/09/19 11:05:42;;;;;;;;;;;;;;;19.24;54.64;97912.72;5031507;28;19975;-62
2023/09/19 11:08:12;;;;;;;;;;;;;;;19.30;54.64;97903.78;5032239;28;20359;-62
2023/09/19 11:10:46;;;;;;;;;;;;;;;19.36;53.14;97905.03;5026940;28;19925;-62
2023/09/19 11:13:26;;;;;;;;;;;;;;;19.45;52.37;97901.25;5029698;28;20019;-63
2023/09/19 11:16:04;;;;;;;;;;;;;;;19.50;51.75;97915.50;5030085;28;19929;-63
2023/09/19 11:18:52;;;;;;;;;;;;;;;19.52;50.48;97906.84;5026378;28;19925;-63
2023/09/19 11:21:42;;;;;;;;;;;;;;;19.52;50.33;97907.66;5029819;28;19929;-63
2023/09/19 11:24:25;;;;;;;;;;;;;;;19.53;50.33;97913.97;5031630;28;19925;-63
2023/09/19 11:27:09;;;;;;;;;;;;;;;19.51;50.25;97899.75;5031622;28;19931;-62
2023/09/19 11:29:37;;;;;;;;;;;;;;;19.53;51.64;97897.41;5029722;28;20035;-63
2023/09/19 11:32:05;;;;;;;;;;;;;;;19.57;52.51;97909.31;5025664;28;19951;-63
2023/09/19 11:34:44;;;;;;;;;;;;;;;19.59;53.13;97904.22;5030992;28;19926;-63
2023/09/19 11:37:32;;;;;;;;;;;;;;;19.59;50.57;97894.00;5036415;28;20003;-63
2023/09/19 11:40:09;;;;;;;;;;;;;;;19.60;49.66;97892.03;5022496;28;19925;-63
2023/09/19 11:42:45;;;;;;;;;;;;;;;19.62;49.68;97892.47;5027736;28;19929;-63
2023/09/19 11:45:32;;;;;;;;;;;;;;;19.61;49.49;97891.69;5029585;28;19932;-63
2023/09/19 11:48:00;;;;;;;;;;;;;;;19.62;51.71;97898.78;5028407;28;20378;-62
2023/09/19 11:50:27;;;;;;;;;;;;;;;19.58;52.62;97891.59;5029593;28;20394;-63
2023/09/19 11:52:55;;;;;;;;;;;;;;;19.52;52.52;97896.63;5031407;28;19936;-62
2023/09/19 11:55:23;;;;;;;;;;;;;;;19.49;52.73;97896.56;5027556;28;20333;-63
2023/09/19 11:57:54;;;;;;;;;;;;;;;19.47;52.21;97898.91;5030914;28;19929;-63
2023/09/19 12:00:22;;;;;;;;;;;;;;;19.42;51.96;97897.25;5026115;28;19925;-62
2023/09/19 12:02:50;;;;;;;;;;;;;;;19.41;52.21;97892.13;5030442;28;19951;-62
2023/09/19 12:05:21;;;;;;;;;;;;;;;19.40;51.91;97893.28;5028244;28;19955;-63
2023/09/19 12:07:49;;;;;;;;;;;;;;;19.40;52.13;97901.56;5023717;28;20591;-63
2023/09/19 12:10:21;;;;;;;;;;;;;;;19.41;51.97;97894.88;5021289;28;20639;-62
2023/09/19 12:12:49;;;;;;;;;;;;;;;19.43;51.50;97892.53;5027271;28;19939;-62
2023/09/19 12:15:24;;;;;;;;;;;;;;;19.47;51.78;97901.66;5022945;28;19929;-63
2023/09/19 12:17:52;;;;;;;;;;;;;;;19.48;50.03;97900.50;5029325;28;20255;-62
2023/09/19 12:20:21;;;;;;;;;;;;;;;19.51;50.48;97895.03;5027378;28;19925;-63
2023/09/19 12:22:49;;;;;;;;;;;;;;;19.51;49.00;97900.56;5029312;28;19932;-63
2023/09/19 12:25:18;;;;;;;;;;;;;;;19.51;48.91;97891.50;5022662;28;19970;-63
2023/09/19 12:27:46;;;;;;;;;;;;;;;19.54;48.55;97885.22;5020875;28;19979;-62
2023/09/19 12:30:15;;;;;;;;;;;;;;;19.61;50.14;97894.44;5022200;28;20290;-63
2023/09/19 12:32:55;;;;;;;;;;;;;;;19.67;49.22;97892.16;5024816;28;19959;-62
2023/09/19 12:35:30;;;;;;;;;;;;;;;19.76;49.83;97883.59;5031517;28;19925;-63
2023/09/19 12:37:58;;;;;;;;;;;;;;;19.81;50.08;97886.84;5027627;28;19937;-63
2023/09/19 12:40:27;;;;;;;;;;;;;;;19.81;48.82;97886.03;5024946;28;21476;-62
2023/09/19 12:42:58;;;;;;;;;;;;;;;19.79;47.95;97888.38;5028705;28;20385;-62
2023/09/19 12:45:26;;;;;;;;;;;;;;;19.80;47.38;97881.69;5028718;28;19932;-63
2023/09/19 12:48:12;;;;;;;;;;;;;;;19.82;48.28;97891.19;5027213;28;20279;-62
2023/09/19 12:50:57;;;;;;;;;;;;;;;19.83;47.33;97886.47;5025428;28;19925;-62
2023/09/19 12:53:29;;;;;;;;;;;;;;;19.86;47.22;97885.72;5029178;28;19952;-62
2023/09/19 12:56:00;;;;;;;;;;;;;;;19.90;49.02;97892.09;5029281;28;19925;-62
2023/09/19 12:58:30;;;;;;;;;;;;;;;19.91;49.72;97879.09;5031225;28;19932;-63
2023/09/19 13:00:58;;;;;;;;;;;;;;;19.94;47.32;97878.34;5029931;28;19925;-62
2023/09/19 13:03:28;;;;;;;;;;;;;;;19.93;48.85;97869.28;5030542;28;19925;-62
2023/09/19 13:05:57;;;;;;;;;;;;;;;19.95;48.72;97879.94;5027768;28;19995;-63
2023/09/19 13:08:30;;;;;;;;;;;;;;;19.96;48.98;97870.50;5031368;28;19931;-63